Time;durP1;ratioP1;P1;durP2;ratioP2;P2;SDS_P1;SDS_P2;PMS_P1;PMS_P2;Temp;Humidity;BMP_temperature;BMP_pressure;BME280_temperature;BME280_humidity;BME280_pressure;Samples;Min_cycle;Max_cycle;Signal;HPM_P1;HPM_P2
2022/07/22 00:00:57;;;;;;;10.68;3.10;;;15.30;99.90;;;;;;6277164;22;20016;-87
2022/07/22 00:03:23;;;;;;;9.60;3.17;;;15.30;99.90;;;;;;6276881;22;20012;-87
2022/07/22 00:05:49;;;;;;;10.55;3.08;;;15.30;99.90;;;;;;6251580;22;20062;-87
2022/07/22 00:08:14;;;;;;;11.70;3.53;;;15.30;99.90;;;;;;6249349;22;20031;-87
2022/07/22 00:10:40;;;;;;;12.07;3.60;;;15.30;99.90;;;;;;6249577;22;20113;-87
2022/07/22 00:13:06;;;;;;;11.48;3.50;;;15.30;99.90;;;;;;6277150;22;20095;-86
2022/07/22 00:15:32;;;;;;;12.43;3.40;;;15.20;99.90;;;;;;6254620;22;20012;-87
2022/07/22 00:17:57;;;;;;;11.48;3.30;;;15.20;99.90;;;;;;6277655;22;20042;-87
2022/07/22 00:20:23;;;;;;;11.55;3.90;;;15.20;99.90;;;;;;6276937;22;20328;-87
2022/07/22 00:22:49;;;;;;;12.70;3.42;;;15.20;99.90;;;;;;6249876;22;20048;-87
2022/07/22 00:25:14;;;;;;;10.73;3.25;;;15.20;99.90;;;;;;6250706;22;20165;-86
2022/07/22 00:27:40;;;;;;;11.82;3.85;;;15.10;99.90;;;;;;6276785;22;20012;-87
2022/07/22 00:30:06;;;;;;;13.23;4.43;;;15.10;99.90;;;;;;6277891;22;20012;-86
2022/07/22 00:32:32;;;;;;;12.65;4.05;;;15.00;99.90;;;;;;6277507;22;20344;-87
2022/07/22 00:34:57;;;;;;;11.93;4.00;;;15.00;99.90;;;;;;6248907;22;20018;-86
2022/07/22 00:37:23;;;;;;;12.18;4.43;;;15.10;99.90;;;;;;6277916;22;20020;-87
2022/07/22 00:39:48;;;;;;;10.40;3.88;;;15.10;99.90;;;;;;6251253;22;20070;-87
2022/07/22 00:42:14;;;;;;;10.75;3.80;;;15.00;99.90;;;;;;6278210;22;20019;-86
2022/07/22 00:44:40;;;;;;;12.10;3.47;;;15.10;99.90;;;;;;6250632;22;20045;-87
2022/07/22 00:47:06;;;;;;;12.38;3.90;;;15.00;99.90;;;;;;6249700;22;20012;-86
2022/07/22 00:49:32;;;;;;;16.42;4.40;;;14.90;99.90;;;;;;6249146;22;20448;-87
2022/07/22 00:51:58;;;;;;;13.50;4.03;;;14.90;99.90;;;;;;6276992;22;20090;-87
2022/07/22 00:54:24;;;;;;;14.35;4.22;;;15.00;99.90;;;;;;6249464;22;20058;-87
2022/07/22 00:56:49;;;;;;;14.25;4.47;;;14.80;99.90;;;;;;6277397;22;20035;-87
2022/07/22 00:59:16;;;;;;;14.98;4.32;;;14.80;99.90;;;;;;6255898;22;20019;-87
2022/07/22 01:01:41;;;;;;;14.23;4.63;;;14.80;99.90;;;;;;6279170;22;20014;-87
2022/07/22 01:04:07;;;;;;;15.57;4.30;;;14.80;99.90;;;;;;6262636;22;20459;-87
2022/07/22 01:06:32;;;;;;;16.17;4.32;;;14.80;99.90;;;;;;6252423;22;20091;-87
2022/07/22 01:08:58;;;;;;;15.18;4.40;;;14.80;99.90;;;;;;6277319;22;20019;-87
2022/07/22 01:11:25;;;;;;;15.32;4.57;;;14.80;99.90;;;;;;6265805;22;20018;-87
2022/07/22 01:13:52;;;;;;;16.00;4.35;;;14.80;99.90;;;;;;6260619;22;20019;-87
2022/07/22 01:16:18;;;;;;;16.20;4.60;;;14.80;99.90;;;;;;6276953;22;20004;-87
2022/07/22 01:18:45;;;;;;;14.93;4.43;;;14.80;99.90;;;;;;6249926;22;20026;-87
2022/07/22 01:21:12;;;;;;;13.80;4.32;;;14.80;99.90;;;;;;6250241;22;20058;-87
2022/07/22 01:23:38;;;;;;;14.50;4.25;;;14.80;99.90;;;;;;6276434;22;20020;-86
2022/07/22 01:26:05;;;;;;;18.02;4.90;;;14.80;99.90;;;;;;6277914;22;20066;-87
2022/07/22 01:28:31;;;;;;;15.15;4.82;;;14.80;99.90;;;;;;6277601;22;20012;-87
2022/07/22 01:30:57;;;;;;;16.52;4.80;;;14.80;99.90;;;;;;6249848;22;20007;-86
2022/07/22 01:33:24;;;;;;;15.55;5.07;;;14.80;99.90;;;;;;6277903;22;20397;-87
2022/07/22 01:35:53;;;;;;;16.27;5.20;;;14.80;99.90;;;;;;6277620;22;20035;-86
2022/07/22 01:38:19;;;;;;;14.40;5.13;;;14.80;99.90;;;;;;6249406;22;20352;-86
2022/07/22 01:40:45;;;;;;;20.77;5.55;;;15.00;99.90;;;;;;6276645;22;20053;-86
2022/07/22 01:43:15;;;;;;;16.98;5.03;;;14.80;99.90;;;;;;6277402;22;20362;-86
2022/07/22 01:45:41;;;;;;;18.60;5.55;;;14.80;99.90;;;;;;6276221;22;20043;-86
2022/07/22 01:48:07;;;;;;;15.52;5.35;;;15.00;99.90;;;;;;6249290;22;20027;-86
2022/07/22 01:50:32;;;;;;;18.40;5.70;;;14.90;99.90;;;;;;6276525;22;20016;-86
2022/07/22 01:52:59;;;;;;;15.70;5.65;;;14.80;99.90;;;;;;6276734;22;20340;-86
2022/07/22 01:55:25;;;;;;;15.90;5.60;;;14.80;99.90;;;;;;6277049;22;20015;-86
2022/07/22 01:57:51;;;;;;;19.00;5.55;;;14.90;99.90;;;;;;6248726;22;20012;-86
2022/07/22 02:00:17;;;;;;;19.00;5.72;;;14.90;99.90;;;;;;6278707;22;20020;-86
2022/07/22 02:02:43;;;;;;;16.25;4.75;;;14.90;99.90;;;;;;6274890;22;20019;-86
2022/07/22 02:05:09;;;;;;;18.02;5.15;;;14.90;99.90;;;;;;6248381;22;20016;-86
2022/07/22 02:07:35;;;;;;;19.80;5.40;;;14.80;99.90;;;;;;6280701;22;20023;-86
2022/07/22 02:10:00;;;;;;;16.60;5.03;;;14.90;99.90;;;;;;6249516;22;20446;-87
2022/07/22 02:12:26;;;;;;;17.83;5.30;;;14.90;99.90;;;;;;6276331;22;20011;-86
2022/07/22 02:14:51;;;;;;;20.33;5.00;;;14.80;99.90;;;;;;6276692;22;20031;-86
2022/07/22 02:17:17;;;;;;;19.92;4.85;;;14.80;99.90;;;;;;6280168;22;20414;-86
2022/07/22 02:19:43;;;;;;;14.40;4.60;;;14.90;99.90;;;;;;6248543;22;20019;-86
2022/07/22 02:22:08;;;;;;;14.18;4.13;;;14.80;99.90;;;;;;6276939;22;20015;-85
2022/07/22 02:24:34;;;;;;;16.60;4.85;;;14.80;99.90;;;;;;6249782;22;20023;-86
2022/07/22 02:27:01;;;;;;;18.42;5.05;;;14.90;99.90;;;;;;6275742;22;20096;-86
2022/07/22 02:29:27;;;;;;;15.02;4.47;;;14.80;99.90;;;;;;6276923;22;20019;-86
2022/07/22 02:31:52;;;;;;;14.77;4.68;;;14.80;99.90;;;;;;6248993;22;20019;-86
2022/07/22 02:34:18;;;;;;;15.15;4.80;;;14.80;99.90;;;;;;6247916;22;20027;-86
2022/07/22 02:36:44;;;;;;;16.23;4.38;;;14.80;99.90;;;;;;6276542;22;20462;-86
2022/07/22 02:39:09;;;;;;;14.50;4.60;;;14.80;99.90;;;;;;6276360;22;20026;-86
2022/07/22 02:41:35;;;;;;;11.15;4.10;;;14.70;99.90;;;;;;6274511;22;20016;-86
2022/07/22 02:44:00;;;;;;;17.23;4.20;;;14.80;99.90;;;;;;6249352;22;20094;-86
2022/07/22 02:46:30;;;;;;;17.70;4.72;;;14.90;99.90;;;;;;6283811;22;20027;-86
2022/07/22 02:48:57;;;;;;;19.15;5.18;;;15.10;99.90;;;;;;6267181;22;20016;-87
2022/07/22 02:51:22;;;;;;;12.68;4.18;;;14.80;99.90;;;;;;6277631;22;20050;-86
2022/07/22 02:53:48;;;;;;;15.98;4.10;;;14.80;99.90;;;;;;6248966;22;20114;-87
2022/07/22 02:56:14;;;;;;;15.60;4.45;;;14.70;99.90;;;;;;6248415;22;20061;-86
2022/07/22 02:58:40;;;;;;;15.23;3.60;;;14.80;99.90;;;;;;6276639;22;20439;-86
2022/07/22 03:01:06;;;;;;;12.75;3.80;;;14.80;99.90;;;;;;6275009;22;20016;-86
2022/07/22 03:03:32;;;;;;;14.55;3.85;;;14.80;99.90;;;;;;6276640;22;20091;-86
2022/07/22 03:05:58;;;;;;;12.35;4.03;;;14.90;99.90;;;;;;6248972;22;20039;-87
2022/07/22 03:08:23;;;;;;;16.98;4.10;;;14.80;99.90;;;;;;6275449;22;20435;-87
2022/07/22 03:10:49;;;;;;;12.82;4.00;;;14.70;99.90;;;;;;6276134;22;20008;-87
2022/07/22 03:13:14;;;;;;;16.23;4.00;;;14.80;99.90;;;;;;6249627;22;20019;-87
2022/07/22 03:15:40;;;;;;;15.25;3.80;;;14.70;99.90;;;;;;6248396;22;20070;-87
2022/07/22 03:18:06;;;;;;;15.57;3.70;;;14.80;99.90;;;;;;6252530;22;20384;-87
2022/07/22 03:20:33;;;;;;;12.13;3.35;;;14.90;99.90;;;;;;6249101;22;20008;-87
2022/07/22 03:23:00;;;;;;;12.63;3.53;;;14.70;99.90;;;;;;6248164;22;20020;-87
2022/07/22 03:25:26;;;;;;;13.90;3.50;;;15.00;99.90;;;;;;6249103;22;20047;-87
2022/07/22 03:27:52;;;;;;;14.65;4.10;;;14.70;99.90;;;;;;6275545;22;20065;-87
2022/07/22 03:30:18;;;;;;;14.63;3.40;;;14.80;99.90;;;;;;6275394;22;20018;-87
2022/07/22 03:32:46;;;;;;;12.60;3.45;;;14.80;99.90;;;;;;6275929;22;20016;-87
2022/07/22 03:35:12;;;;;;;13.35;3.83;;;14.70;99.90;;;;;;6249261;22;20012;-87
2022/07/22 03:37:38;;;;;;;12.90;3.40;;;15.00;99.90;;;;;;6275073;22;20016;-87
2022/07/22 03:40:05;;;;;;;13.98;3.50;;;14.70;99.90;;;;;;6248709;22;20037;-87
2022/07/22 03:42:30;;;;;;;11.52;3.53;;;14.70;99.90;;;;;;6276132;22;20008;-87
2022/07/22 03:44:56;;;;;;;12.98;3.28;;;14.80;99.90;;;;;;6248416;22;20435;-87
2022/07/22 03:47:22;;;;;;;12.32;3.67;;;14.80;99.90;;;;;;6277941;22;20035;-87
2022/07/22 03:49:49;;;;;;;12.70;3.20;;;14.70;99.90;;;;;;6250280;22;20011;-87
2022/07/22 03:52:15;;;;;;;12.20;3.22;;;14.70;99.90;;;;;;6249880;22;20445;-87
2022/07/22 03:54:41;;;;;;;11.68;3.20;;;14.80;99.90;;;;;;6250860;22;20051;-87
2022/07/22 03:57:07;;;;;;;12.98;3.33;;;14.70;99.90;;;;;;6277662;22;20019;-87
2022/07/22 03:59:33;;;;;;;15.05;3.53;;;14.70;99.90;;;;;;6277490;22;20027;-87
2022/07/22 04:01:59;;;;;;;11.35;3.25;;;14.70;99.90;;;;;;6277629;22;20015;-87
2022/07/22 04:04:25;;;;;;;10.68;3.22;;;14.70;99.90;;;;;;6294383;22;20011;-87
2022/07/22 04:06:51;;;;;;;8.93;3.28;;;14.80;99.90;;;;;;6277835;22;20062;-86
2022/07/22 04:09:18;;;;;;;13.18;2.83;;;14.70;99.90;;;;;;6282035;22;20051;-87
2022/07/22 04:11:43;;;;;;;9.98;3.20;;;14.70;99.90;;;;;;6251159;22;20022;-87
2022/07/22 04:14:09;;;;;;;12.52;3.13;;;14.70;99.90;;;;;;6278828;22;20094;-87
2022/07/22 04:16:36;;;;;;;9.05;2.60;;;14.80;99.90;;;;;;6254443;22;20407;-87
2022/07/22 04:19:03;;;;;;;10.75;2.97;;;14.80;99.90;;;;;;6276625;22;20103;-86
2022/07/22 04:21:29;;;;;;;11.18;2.95;;;14.70;99.90;;;;;;6252086;22;20053;-88
2022/07/22 04:23:55;;;;;;;11.13;2.97;;;14.70;99.90;;;;;;6276708;22;20060;-86
2022/07/22 04:26:20;;;;;;;13.45;2.83;;;14.80;99.90;;;;;;6250988;22;20077;-86
2022/07/22 04:28:46;;;;;;;9.18;3.33;;;14.80;99.90;;;;;;6250101;22;20019;-87
2022/07/22 04:31:12;;;;;;;9.90;3.00;;;14.70;99.90;;;;;;6250541;22;20042;-86
2022/07/22 04:33:37;;;;;;;10.95;2.78;;;14.70;99.90;;;;;;6249710;22;20019;-87
2022/07/22 04:36:04;;;;;;;8.05;2.58;;;15.00;99.90;;;;;;6251287;22;20016;-86
2022/07/22 04:38:29;;;;;;;13.65;2.75;;;14.70;99.90;;;;;;6250627;22;20141;-86
2022/07/22 04:40:55;;;;;;;13.85;2.92;;;14.80;99.90;;;;;;6252031;22;20019;-86
2022/07/22 04:43:21;;;;;;;10.57;3.00;;;14.80;99.90;;;;;;6280637;22;20466;-86
2022/07/22 04:45:47;;;;;;;9.73;2.70;;;14.80;99.90;;;;;;6283178;22;20012;-87
2022/07/22 04:48:12;;;;;;;9.18;2.90;;;14.80;99.90;;;;;;6253281;22;20392;-86
2022/07/22 04:50:38;;;;;;;9.15;2.70;;;14.80;99.90;;;;;;6253435;22;20050;-87
2022/07/22 04:53:04;;;;;;;10.20;2.95;;;14.90;99.90;;;;;;6253655;22;20027;-87
2022/07/22 04:55:29;;;;;;;10.88;2.85;;;15.00;99.90;;;;;;6280083;22;20041;-87
2022/07/22 04:57:55;;;;;;;9.98;2.70;;;15.20;99.90;;;;;;6279983;22;20023;-87
2022/07/22 05:00:21;;;;;;;10.25;2.55;;;14.90;99.90;;;;;;6281660;22;20095;-87
2022/07/22 05:02:47;;;;;;;9.95;2.50;;;14.90;99.90;;;;;;6252331;22;20015;-87
2022/07/22 05:05:12;;;;;;;6.75;2.20;;;15.00;99.90;;;;;;6253476;22;20066;-87
2022/07/22 05:07:38;;;;;;;8.43;2.40;;;15.00;99.90;;;;;;6252516;22;20042;-87
2022/07/22 05:10:04;;;;;;;8.48;2.42;;;15.00;99.90;;;;;;6253293;22;20019;-87
2022/07/22 05:12:30;;;;;;;8.68;2.38;;;15.00;99.90;;;;;;6253611;22;20448;-87
2022/07/22 05:14:55;;;;;;;12.02;3.00;;;15.10;99.90;;;;;;6280832;22;20022;-87
2022/07/22 05:17:21;;;;;;;11.13;2.40;;;15.10;99.90;;;;;;6282407;22;20412;-84
2022/07/22 05:19:46;;;;;;;11.45;2.55;;;15.20;99.90;;;;;;6255941;22;20016;-85
2022/07/22 05:22:12;;;;;;;9.55;3.20;;;15.10;99.90;;;;;;6281459;22;20016;-85
2022/07/22 05:24:38;;;;;;;9.38;2.92;;;15.20;99.90;;;;;;6254305;22;20015;-87
2022/07/22 05:27:03;;;;;;;11.25;2.83;;;15.20;99.90;;;;;;6281952;22;20024;-82
2022/07/22 05:29:30;;;;;;;12.75;3.53;;;15.20;99.90;;;;;;6253734;22;20102;-82
2022/07/22 05:31:56;;;;;;;10.50;2.95;;;15.30;99.90;;;;;;6280241;22;20015;-82
2022/07/22 05:34:22;;;;;;;13.68;3.30;;;15.20;99.90;;;;;;6279951;22;20008;-83
2022/07/22 05:36:48;;;;;;;8.52;2.58;;;15.30;99.90;;;;;;6252588;22;20440;-83
2022/07/22 05:39:14;;;;;;;10.77;2.67;;;15.30;99.90;;;;;;6255034;22;20024;-83
2022/07/22 05:41:39;;;;;;;9.43;2.30;;;15.30;99.90;;;;;;6254102;22;20018;-83
2022/07/22 05:44:05;;;;;;;9.45;2.50;;;15.40;99.90;;;;;;6278849;22;20020;-82
2022/07/22 05:46:31;;;;;;;15.10;3.85;;;15.40;99.90;;;;;;6252015;22;20378;-82
2022/07/22 05:48:56;;;;;;;9.52;2.50;;;15.40;99.90;;;;;;6252527;22;20058;-82
2022/07/22 05:51:22;;;;;;;10.95;2.72;;;15.50;99.90;;;;;;6251183;22;20456;-82
2022/07/22 05:53:48;;;;;;;8.00;2.72;;;15.50;99.90;;;;;;6251608;22;20024;-82
2022/07/22 05:56:13;;;;;;;11.95;2.70;;;15.50;99.90;;;;;;6251971;22;20015;-81
2022/07/22 05:58:41;;;;;;;9.73;2.53;;;15.50;99.90;;;;;;6256436;22;20027;-83
2022/07/22 06:01:07;;;;;;;10.00;2.75;;;15.50;99.90;;;;;;6280441;22;20023;-82
2022/07/22 06:03:33;;;;;;;11.15;2.72;;;15.50;99.90;;;;;;6281097;22;20059;-83
2022/07/22 06:06:01;;;;;;;9.13;2.60;;;15.50;99.90;;;;;;6251596;22;20011;-83
2022/07/22 06:08:27;;;;;;;9.77;2.75;;;15.60;99.90;;;;;;6251546;22;20024;-82
2022/07/22 06:10:52;;;;;;;12.30;2.60;;;15.60;99.90;;;;;;6250606;22;20086;-83
2022/07/22 06:13:21;;;;;;;12.40;2.70;;;15.60;99.90;;;;;;6252208;22;20046;-82
2022/07/22 06:15:46;;;;;;;14.88;3.28;;;15.70;99.90;;;;;;6251898;22;20012;-82
2022/07/22 06:18:12;;;;;;;10.15;2.78;;;15.70;99.90;;;;;;6251328;22;20015;-83
2022/07/22 06:20:38;;;;;;;9.07;2.45;;;16.00;99.90;;;;;;6252691;22;20084;-83
2022/07/22 06:23:04;;;;;;;8.40;2.47;;;15.80;99.90;;;;;;6251025;22;20015;-82
2022/07/22 06:25:29;;;;;;;8.10;2.63;;;16.10;99.90;;;;;;6278392;22;20015;-82
2022/07/22 06:27:55;;;;;;;10.32;2.78;;;15.90;99.90;;;;;;6251921;22;20016;-84
2022/07/22 06:30:21;;;;;;;10.10;2.72;;;15.90;99.90;;;;;;6252191;22;20012;-83
2022/07/22 06:32:46;;;;;;;9.55;3.03;;;16.00;99.90;;;;;;6278142;22;20027;-82
2022/07/22 06:35:12;;;;;;;10.23;2.72;;;16.00;99.90;;;;;;6253181;22;20016;-83
2022/07/22 06:37:38;;;;;;;9.98;2.63;;;16.10;99.90;;;;;;6278858;22;20019;-83
2022/07/22 06:40:04;;;;;;;11.73;2.47;;;16.10;99.90;;;;;;6277471;22;20019;-82
2022/07/22 06:42:30;;;;;;;9.50;2.55;;;16.10;99.90;;;;;;6252445;22;20019;-82
2022/07/22 06:44:56;;;;;;;12.40;2.50;;;16.10;99.90;;;;;;6252672;22;20022;-82
2022/07/22 06:47:22;;;;;;;10.45;2.30;;;16.10;99.90;;;;;;6251582;22;20054;-82
2022/07/22 06:49:48;;;;;;;13.32;2.67;;;16.20;99.90;;;;;;6251477;22;20012;-83
2022/07/22 06:52:14;;;;;;;8.27;2.20;;;16.30;99.90;;;;;;6252428;22;20531;-82
2022/07/22 06:54:39;;;;;;;10.05;2.40;;;16.20;99.90;;;;;;6254601;22;20016;-83
2022/07/22 06:57:05;;;;;;;8.75;2.28;;;16.30;99.90;;;;;;6252101;22;20011;-83
2022/07/22 06:59:30;;;;;;;8.43;2.20;;;16.30;99.90;;;;;;6281675;22;20020;-83
2022/07/22 07:01:56;;;;;;;9.02;2.20;;;16.30;99.90;;;;;;6250179;22;20011;-83
2022/07/22 07:04:22;;;;;;;9.95;2.38;;;16.30;99.90;;;;;;6280888;22;20008;-83
2022/07/22 07:06:47;;;;;;;9.73;2.40;;;16.80;99.90;;;;;;6258141;22;20003;-84
2022/07/22 07:09:13;;;;;;;9.07;2.45;;;16.40;99.90;;;;;;6276592;22;20019;-84
2022/07/22 07:11:39;;;;;;;7.53;2.30;;;16.50;99.90;;;;;;6286457;22;20466;-84
2022/07/22 07:14:04;;;;;;;7.57;2.35;;;16.50;99.90;;;;;;6280570;22;20031;-84
2022/07/22 07:16:30;;;;;;;10.38;2.20;;;17.10;99.90;;;;;;6278970;22;20060;-84
2022/07/22 07:18:55;;;;;;;9.95;2.65;;;16.60;99.90;;;;;;6251318;22;20022;-84
2022/07/22 07:21:21;;;;;;;8.63;2.45;;;16.70;99.90;;;;;;6279814;22;20110;-85
2022/07/22 07:23:47;;;;;;;8.98;2.33;;;16.70;99.90;;;;;;6247925;22;20470;-84
2022/07/22 07:26:13;;;;;;;8.88;2.55;;;16.80;99.90;;;;;;6278349;22;20073;-85
2022/07/22 07:28:39;;;;;;;7.00;2.13;;;16.80;99.90;;;;;;6250083;22;20020;-82
2022/07/22 07:31:05;;;;;;;9.55;2.20;;;16.80;99.90;;;;;;6251005;22;20016;-83
2022/07/22 07:33:32;;;;;;;7.72;2.10;;;16.90;99.90;;;;;;6254792;22;20092;-84
2022/07/22 07:35:57;;;;;;;9.95;3.03;;;16.90;99.90;;;;;;6252074;22;20065;-82
2022/07/22 07:38:23;;;;;;;8.80;2.53;;;17.00;99.90;;;;;;6277977;22;20020;-84
2022/07/22 07:40:48;;;;;;;9.65;2.20;;;17.00;99.90;;;;;;6277701;22;20016;-85
2022/07/22 07:43:14;;;;;;;7.90;2.10;;;17.10;99.90;;;;;;6277221;22;20012;-84
2022/07/22 07:45:40;;;;;;;10.30;2.50;;;17.20;99.90;;;;;;6278158;22;20374;-82
2022/07/22 07:48:06;;;;;;;11.00;2.60;;;17.30;99.90;;;;;;6250158;22;20008;-83
2022/07/22 07:50:32;;;;;;;7.13;2.10;;;17.70;99.90;;;;;;6249600;22;20022;-83
2022/07/22 07:52:58;;;;;;;6.40;2.08;;;17.40;99.90;;;;;;6277791;22;20007;-84
2022/07/22 07:55:24;;;;;;;7.78;2.22;;;17.60;99.90;;;;;;6250244;22;20490;-84
2022/07/22 07:57:50;;;;;;;8.35;2.38;;;17.50;99.90;;;;;;6276951;22;20012;-84
2022/07/22 08:00:20;;;;;;;8.45;2.22;;;17.50;99.90;;;;;;6278260;22;20019;-85
2022/07/22 08:02:46;;;;;;;7.40;2.15;;;17.50;99.90;;;;;;6250332;22;20024;-85
2022/07/22 08:05:12;;;;;;;6.97;1.90;;;17.50;99.90;;;;;;6277388;22;20035;-85
2022/07/22 08:07:38;;;;;;;9.07;2.08;;;17.70;99.90;;;;;;6250640;22;20338;-85
2022/07/22 08:10:06;;;;;;;6.60;2.55;;;17.60;99.90;;;;;;6250487;22;20019;-85
2022/07/22 08:12:32;;;;;;;7.07;2.00;;;17.60;99.90;;;;;;6277051;22;20074;-85
2022/07/22 08:14:57;;;;;;;7.57;2.10;;;17.60;99.90;;;;;;6275826;22;20051;-85
2022/07/22 08:17:23;;;;;;;8.27;2.10;;;17.60;99.90;;;;;;6276952;22;20098;-84
2022/07/22 08:19:49;;;;;;;6.78;1.80;;;17.60;99.90;;;;;;6249256;22;20098;-85
2022/07/22 08:22:14;;;;;;;11.55;2.38;;;17.70;99.90;;;;;;6277036;22;20023;-85
2022/07/22 08:24:40;;;;;;;9.57;2.40;;;17.50;99.90;;;;;;6249340;22;20012;-84
2022/07/22 08:27:05;;;;;;;8.68;2.30;;;17.60;99.90;;;;;;6277537;22;20043;-85
2022/07/22 08:29:31;;;;;;;7.85;2.00;;;17.60;99.90;;;;;;6250013;22;20097;-85
2022/07/22 08:31:57;;;;;;;6.88;1.88;;;17.50;99.90;;;;;;6248150;22;20016;-85
2022/07/22 08:34:22;;;;;;;8.40;2.15;;;17.90;99.90;;;;;;6277155;22;20356;-85
2022/07/22 08:36:48;;;;;;;6.65;2.00;;;17.50;99.90;;;;;;6276797;22;20011;-85
2022/07/22 08:39:13;;;;;;;5.07;1.73;;;17.60;99.90;;;;;;6249141;22;20024;-84
2022/07/22 08:41:39;;;;;;;7.97;2.03;;;17.70;99.90;;;;;;6250110;22;20016;-85
2022/07/22 08:44:07;;;;;;;6.40;2.10;;;17.80;99.90;;;;;;6276748;22;20447;-85
2022/07/22 08:46:33;;;;;;;10.20;2.13;;;17.90;99.90;;;;;;6248932;22;20011;-84
2022/07/22 08:49:01;;;;;;;10.60;2.80;;;18.10;99.90;;;;;;6249113;22;20047;-84
2022/07/22 08:51:27;;;;;;;6.57;2.00;;;18.10;99.90;;;;;;6277416;22;20044;-84
2022/07/22 08:53:53;;;;;;;5.97;2.13;;;18.70;99.90;;;;;;6276102;22;20015;-84
2022/07/22 08:56:19;;;;;;;7.22;2.00;;;18.50;99.90;;;;;;6249962;22;20016;-84
2022/07/22 08:58:45;;;;;;;9.43;2.17;;;18.20;99.90;;;;;;6249453;22;20039;-84
2022/07/22 09:01:16;;;;;;;8.25;1.88;;;18.30;99.90;;;;;;6248753;22;20012;-84
2022/07/22 09:03:55;;;;;;;10.18;2.08;;;18.30;99.90;;;;;;6277137;22;20019;-84
2022/07/22 09:06:22;;;;;;;8.85;1.98;;;18.20;99.90;;;;;;6250369;22;20517;-84
2022/07/22 09:08:56;;;;;;;7.57;1.98;;;18.20;99.90;;;;;;6278559;22;20015;-85
2022/07/22 09:11:27;;;;;;;8.75;1.92;;;18.10;99.90;;;;;;6277023;22;20024;-84
2022/07/22 09:13:53;;;;;;;7.07;1.92;;;17.90;99.90;;;;;;6248935;22;20082;-84
2022/07/22 09:16:47;;;;;;;10.25;2.00;;;17.90;99.90;;;;;;6277186;22;20043;-84
2022/07/22 09:19:14;;;;;;;7.88;2.28;;;17.80;99.90;;;;;;6277141;22;20011;-84
2022/07/22 09:21:42;;;;;;;10.10;2.35;;;17.90;99.90;;;;;;6276078;22;20016;-84
2022/07/22 09:24:08;;;;;;;9.25;2.10;;;17.90;99.90;;;;;;6276139;22;20499;-84
2022/07/22 09:26:38;;;;;;;7.75;2.17;;;17.80;99.90;;;;;;6249475;22;20023;-84
2022/07/22 09:29:05;;;;;;;8.57;2.15;;;18.00;99.90;;;;;;6248895;22;20019;-85
2022/07/22 09:31:34;;;;;;;8.55;2.25;;;18.10;99.90;;;;;;6276747;22;20046;-85
2022/07/22 09:34:01;;;;;;;6.93;2.10;;;18.20;99.90;;;;;;6275618;22;20011;-84
2022/07/22 09:36:27;;;;;;;10.10;2.13;;;18.10;99.90;;;;;;6247031;22;20015;-84
2022/07/22 09:38:53;;;;;;;7.38;2.10;;;18.20;99.90;;;;;;6275793;22;20012;-85
2022/07/22 09:41:19;;;;;;;8.82;2.13;;;18.30;99.90;;;;;;6277078;22;20332;-87
2022/07/22 09:43:45;;;;;;;6.65;1.98;;;18.40;99.90;;;;;;6252223;22;20027;-85
2022/07/22 09:46:10;;;;;;;7.55;2.35;;;18.40;99.90;;;;;;6276924;22;20007;-85
2022/07/22 09:48:38;;;;;;;7.40;2.00;;;18.70;99.90;;;;;;6277012;22;20011;-84
2022/07/22 09:51:04;;;;;;;10.13;2.10;;;18.50;99.90;;;;;;6248135;22;20022;-85
2022/07/22 09:53:30;;;;;;;8.27;2.20;;;18.60;99.90;;;;;;6249567;22;20062;-86
2022/07/22 09:56:02;;;;;;;10.90;2.42;;;18.90;99.90;;;;;;6247863;22;20091;-85
2022/07/22 09:58:29;;;;;;;8.55;2.10;;;18.50;99.90;;;;;;6249775;22;20011;-86
2022/07/22 10:00:59;;;;;;;7.40;2.20;;;18.40;99.90;;;;;;6276588;22;20019;-84
2022/07/22 10:03:27;;;;;;;8.60;2.40;;;18.40;99.90;;;;;;6275600;22;20348;-84
2022/07/22 10:05:54;;;;;;;7.68;1.98;;;18.40;99.90;;;;;;6276534;22;20047;-86
2022/07/22 10:08:35;;;;;;;9.20;2.30;;;18.20;99.90;;;;;;6276592;22;20016;-88
2022/07/22 10:11:16;;;;;;;8.32;2.28;;;18.30;99.90;;;;;;6258370;22;19996;-86
2022/07/22 10:13:46;;;;;;;9.05;2.08;;;18.80;99.90;;;;;;6276216;22;20021;-83
2022/07/22 10:16:12;;;;;;;6.65;2.00;;;18.20;99.90;;;;;;6252169;22;20011;-87
2022/07/22 10:18:53;;;;;;;8.02;2.10;;;18.40;99.90;;;;;;6250937;22;20012;-86
2022/07/22 10:21:37;;;;;;;7.35;2.28;;;18.70;99.90;;;;;;6276681;22;20023;-85
2022/07/22 10:24:25;;;;;;;7.20;2.10;;;18.30;99.90;;;;;;6247741;22;20436;-85
2022/07/22 10:27:07;;;;;;;5.43;2.03;;;18.50;99.90;;;;;;6248467;22;20022;-85
2022/07/22 10:29:59;;;;;;;8.43;2.15;;;19.10;99.90;;;;;;6249242;22;20023;-85
2022/07/22 10:32:43;;;;;;;9.63;2.05;;;18.60;99.90;;;;;;6248130;22;20098;-85
2022/07/22 10:35:30;;;;;;;6.45;2.03;;;19.40;99.90;;;;;;6249182;22;20026;-85
2022/07/22 10:37:57;;;;;;;7.55;1.90;;;19.40;99.90;;;;;;6248201;22;20024;-85
2022/07/22 10:40:46;;;;;;;7.70;1.95;;;19.90;99.90;;;;;;6248426;22;20050;-85
2022/07/22 10:43:12;;;;;;;8.23;2.10;;;19.20;99.90;;;;;;6289305;22;20008;-86
2022/07/22 10:45:43;;;;;;;7.63;1.90;;;19.40;99.90;;;;;;6249648;22;20094;-85
2022/07/22 10:48:10;;;;;;;7.72;1.90;;;19.50;99.90;;;;;;6248917;22;20020;-86
2022/07/22 10:50:39;;;;;;;5.30;1.80;;;19.50;99.90;;;;;;6248734;22;20016;-86
2022/07/22 10:53:06;;;;;;;6.07;1.83;;;19.70;99.90;;;;;;6247734;22;20110;-86
2022/07/22 10:55:33;;;;;;;6.57;1.80;;;20.30;99.90;;;;;;6248745;22;20091;-86
2022/07/22 10:57:58;;;;;;;6.32;1.95;;;20.30;99.90;;;;;;6248798;22;20011;-86
2022/07/22 11:00:24;;;;;;;6.55;1.92;;;19.90;99.90;;;;;;6275064;22;20027;-86
2022/07/22 11:02:50;;;;;;;6.95;2.25;;;20.30;99.90;;;;;;6276104;22;20095;-86
2022/07/22 11:05:29;;;;;;;6.63;2.15;;;20.20;99.90;;;;;;6249274;22;20027;-86
2022/07/22 11:07:54;;;;;;;8.27;2.00;;;19.70;99.90;;;;;;6275159;22;20077;-86
2022/07/22 11:10:23;;;;;;;7.15;2.13;;;20.20;99.90;;;;;;6224324;22;20440;-86
2022/07/22 11:12:50;;;;;;;6.18;2.00;;;20.00;99.90;;;;;;6249911;22;20153;-87
2022/07/22 11:15:16;;;;;;;5.85;1.83;;;19.70;99.90;;;;;;6275076;22;20043;-86
2022/07/22 11:17:42;;;;;;;8.27;2.08;;;19.60;99.90;;;;;;6276181;22;20020;-87
2022/07/22 11:20:10;;;;;;;6.80;2.08;;;19.50;99.90;;;;;;6248724;22;20406;-87
2022/07/22 11:22:37;;;;;;;6.80;2.13;;;19.60;99.90;;;;;;6247915;22;20007;-87
2022/07/22 11:25:06;;;;;;;5.95;2.00;;;19.60;99.90;;;;;;6248486;22;20027;-87
2022/07/22 11:27:32;;;;;;;6.35;2.00;;;19.70;99.90;;;;;;6275313;22;20074;-87
2022/07/22 11:29:58;;;;;;;9.10;2.05;;;19.70;99.90;;;;;;6248407;22;20024;-87
2022/07/22 11:32:24;;;;;;;7.65;2.15;;;19.70;99.90;;;;;;6248942;22;20347;-87
2022/07/22 11:34:51;;;;;;;6.40;2.10;;;19.60;99.90;;;;;;6247120;22;20156;-87
2022/07/22 11:38:21;;;;;;;5.90;1.90;;;19.50;99.90;;;;;;6244160;22;20068;-87
2022/07/22 11:40:47;;;;;;;5.97;2.10;;;19.30;99.90;;;;;;6244935;23;20016;-86
2022/07/22 11:43:22;;;;;;;8.55;2.03;;;19.90;99.90;;;;;;6247677;22;20462;-87
2022/07/22 11:45:57;;;;;;;5.35;1.83;;;19.00;99.90;;;;;;6248517;22;20406;-87
2022/07/22 11:48:29;;;;;;;7.70;2.10;;;18.80;99.90;;;;;;6247858;22;20394;-86
2022/07/22 11:51:27;;;;;;;8.65;2.33;;;19.60;99.90;;;;;;6248536;22;20090;-87
2022/07/22 11:53:52;;;;;;;8.05;2.30;;;18.90;99.90;;;;;;6275880;22;20016;-87
2022/07/22 11:56:19;;;;;;;6.07;2.40;;;18.80;99.90;;;;;;6246767;22;20051;-87
2022/07/22 11:58:56;;;;;;;8.20;2.20;;;18.90;99.90;;;;;;6248247;22;20055;-87
2022/07/22 12:01:24;;;;;;;7.95;2.08;;;18.80;99.90;;;;;;6279551;22;20051;-86
2022/07/22 12:04:02;;;;;;;7.30;2.10;;;18.80;99.90;;;;;;6247165;22;20019;-87
2022/07/22 12:06:33;;;;;;;7.55;2.40;;;18.60;99.90;;;;;;6248963;22;20015;-87
2022/07/22 12:09:15;;;;;;;8.57;2.10;;;18.80;99.90;;;;;;6277962;22;20095;-87
2022/07/22 12:11:48;;;;;;;7.72;2.28;;;18.50;99.90;;;;;;6282115;22;20091;-87
2022/07/22 12:14:37;;;;;;;7.10;2.10;;;18.40;99.90;;;;;;6251991;22;20026;-88
2022/07/22 12:17:16;;;;;;;7.47;2.13;;;18.60;99.90;;;;;;6288833;22;20012;-88
2022/07/22 12:19:51;;;;;;;9.38;2.35;;;19.00;99.90;;;;;;6255258;22;20016;-87
2022/07/22 12:22:51;;;;;;;9.00;2.20;;;19.50;99.90;;;;;;6250732;22;20016;-84
2022/07/22 12:25:18;;;;;;;9.05;2.35;;;18.80;99.90;;;;;;6245256;22;20019;-84
2022/07/22 12:28:01;;;;;;;7.30;2.25;;;18.90;99.90;;;;;;6277019;22;20086;-85
2022/07/22 12:31:29;;;;;;;6.47;2.10;;;19.30;99.90;;;;;;6277867;22;20085;-84
2022/07/22 12:34:40;;;;;;;8.00;2.33;;;19.00;99.90;;;;;;6276967;22;20094;-84
2022/07/22 12:37:21;;;;;;;6.90;2.15;;;19.20;99.90;;;;;;6249510;22;20020;-85
2022/07/22 12:40:22;;;;;;;8.50;2.13;;;19.50;99.90;;;;;;6249192;22;20014;-84
2022/07/22 12:43:13;;;;;;;8.07;2.22;;;19.40;99.90;;;;;;6248504;22;20019;-84
2022/07/22 12:46:02;;;;;;;8.63;2.10;;;19.50;99.90;;;;;;6276970;22;20007;-84
2022/07/22 12:48:29;;;;;;;10.05;2.10;;;19.50;99.90;;;;;;6249719;22;20026;-85